Terminal Aerodrome Forecast
Issued by NWS

Home | Current Version | Previous Version | Text Only | Print | Product List | Glossary On
Versions: 1 2 3 4 5 6 7 8 9 10 11 12 13 14
544
FTUS43 KABR 062328
TAFMBG
TAF
KMBG 062328Z 0700/0724 VRB05KT P6SM BKN110
     FM070200 30018G26KT P6SM OVC100
     FM071600 32035G50KT P6SM OVC050=

USA.gov is the U.S. government's official web portal to all federal, state and local government web resources and services.